sensor_id;sensor_type;location;lat;lon;timestamp;P1;durP1;ratioP1;P2;durP2;ratioP2
22103;SDS011;11218;48.886;9.426;2022-09-25T00:01:23;612.10;;;216.77;;
22103;SDS011;11218;48.886;9.426;2022-09-25T00:03:51;621.65;;;222.10;;
22103;SDS011;11218;48.886;9.426;2022-09-25T00:06:20;598.58;;;216.02;;
22103;SDS011;11218;48.886;9.426;2022-09-25T00:08:49;591.95;;;210.65;;
22103;SDS011;11218;48.886;9.426;2022-09-25T00:11:19;599.67;;;218.43;;
22103;SDS011;11218;48.886;9.426;2022-09-25T00:13:49;579.55;;;216.32;;
22103;SDS011;11218;48.886;9.426;2022-09-25T00:16:18;554.92;;;199.57;;
22103;SDS011;11218;48.886;9.426;2022-09-25T00:18:47;550.20;;;206.13;;
22103;SDS011;11218;48.886;9.426;2022-09-25T00:21:32;538.88;;;199.70;;
22103;SDS011;11218;48.886;9.426;2022-09-25T00:24:02;554.72;;;205.25;;
22103;SDS011;11218;48.886;9.426;2022-09-25T00:26:34;562.25;;;203.38;;
22103;SDS011;11218;48.886;9.426;2022-09-25T00:29:04;571.70;;;210.88;;
22103;SDS011;11218;48.886;9.426;2022-09-25T00:31:32;556.42;;;209.35;;
22103;SDS011;11218;48.886;9.426;2022-09-25T00:34:02;566.08;;;209.60;;
22103;SDS011;11218;48.886;9.426;2022-09-25T00:36:31;564.17;;;201.25;;
22103;SDS011;11218;48.886;9.426;2022-09-25T00:39:00;593.17;;;213.07;;
22103;SDS011;11218;48.886;9.426;2022-09-25T00:41:28;600.08;;;210.73;;
22103;SDS011;11218;48.886;9.426;2022-09-25T00:44:00;579.45;;;211.00;;
22103;SDS011;11218;48.886;9.426;2022-09-25T00:46:30;605.90;;;226.65;;
22103;SDS011;11218;48.886;9.426;2022-09-25T00:49:00;610.70;;;220.60;;
22103;SDS011;11218;48.886;9.426;2022-09-25T00:51:32;604.83;;;215.95;;
22103;SDS011;11218;48.886;9.426;2022-09-25T00:54:03;611.78;;;212.63;;
22103;SDS011;11218;48.886;9.426;2022-09-25T00:56:33;605.47;;;211.57;;
22103;SDS011;11218;48.886;9.426;2022-09-25T00:59:06;600.83;;;210.15;;
22103;SDS011;11218;48.886;9.426;2022-09-25T01:01:35;604.38;;;214.02;;
22103;SDS011;11218;48.886;9.426;2022-09-25T01:04:03;577.72;;;204.63;;
22103;SDS011;11218;48.886;9.426;2022-09-25T01:06:34;564.20;;;210.95;;
22103;SDS011;11218;48.886;9.426;2022-09-25T01:09:03;526.97;;;187.52;;
22103;SDS011;11218;48.886;9.426;2022-09-25T01:11:31;561.17;;;204.40;;
22103;SDS011;11218;48.886;9.426;2022-09-25T01:14:00;540.10;;;200.35;;
22103;SDS011;11218;48.886;9.426;2022-09-25T01:16:34;537.75;;;198.90;;
22103;SDS011;11218;48.886;9.426;2022-09-25T01:19:09;555.92;;;208.85;;
22103;SDS011;11218;48.886;9.426;2022-09-25T01:21:42;519.97;;;191.00;;
22103;SDS011;11218;48.886;9.426;2022-09-25T01:24:23;530.63;;;193.45;;
22103;SDS011;11218;48.886;9.426;2022-09-25T01:27:24;529.47;;;193.00;;
22103;SDS011;11218;48.886;9.426;2022-09-25T01:30:01;530.80;;;194.63;;
22103;SDS011;11218;48.886;9.426;2022-09-25T01:32:33;516.45;;;191.02;;
22103;SDS011;11218;48.886;9.426;2022-09-25T01:35:09;512.03;;;192.50;;
22103;SDS011;11218;48.886;9.426;2022-09-25T01:37:41;541.67;;;205.65;;
22103;SDS011;11218;48.886;9.426;2022-09-25T01:40:13;559.03;;;206.25;;
22103;SDS011;11218;48.886;9.426;2022-09-25T01:42:44;558.13;;;204.48;;
22103;SDS011;11218;48.886;9.426;2022-09-25T01:45:17;542.00;;;201.55;;
22103;SDS011;11218;48.886;9.426;2022-09-25T01:47:48;530.78;;;198.10;;
22103;SDS011;11218;48.886;9.426;2022-09-25T01:50:19;535.05;;;205.50;;
22103;SDS011;11218;48.886;9.426;2022-09-25T01:52:52;527.97;;;193.48;;
22103;SDS011;11218;48.886;9.426;2022-09-25T01:55:25;511.83;;;198.75;;
22103;SDS011;11218;48.886;9.426;2022-09-25T01:57:58;512.67;;;194.13;;
22103;SDS011;11218;48.886;9.426;2022-09-25T02:00:32;527.08;;;197.00;;
22103;SDS011;11218;48.886;9.426;2022-09-25T02:03:04;536.83;;;197.85;;
22103;SDS011;11218;48.886;9.426;2022-09-25T02:05:38;557.05;;;199.23;;
22103;SDS011;11218;48.886;9.426;2022-09-25T02:08:09;573.78;;;203.95;;
22103;SDS011;11218;48.886;9.426;2022-09-25T02:10:40;599.60;;;211.13;;
22103;SDS011;11218;48.886;9.426;2022-09-25T02:13:13;607.15;;;215.30;;
22103;SDS011;11218;48.886;9.426;2022-09-25T02:15:45;604.03;;;207.63;;
22103;SDS011;11218;48.886;9.426;2022-09-25T02:18:16;597.53;;;208.05;;
22103;SDS011;11218;48.886;9.426;2022-09-25T02:21:00;602.58;;;214.48;;
22103;SDS011;11218;48.886;9.426;2022-09-25T02:23:33;597.42;;;207.13;;
22103;SDS011;11218;48.886;9.426;2022-09-25T02:26:06;596.70;;;205.55;;
22103;SDS011;11218;48.886;9.426;2022-09-25T02:28:39;591.08;;;202.18;;
22103;SDS011;11218;48.886;9.426;2022-09-25T02:31:09;585.35;;;199.70;;
22103;SDS011;11218;48.886;9.426;2022-09-25T02:33:38;580.70;;;197.20;;
22103;SDS011;11218;48.886;9.426;2022-09-25T02:36:15;596.97;;;208.25;;
22103;SDS011;11218;48.886;9.426;2022-09-25T02:38:44;600.13;;;206.23;;
22103;SDS011;11218;48.886;9.426;2022-09-25T02:41:14;557.42;;;196.93;;
22103;SDS011;11218;48.886;9.426;2022-09-25T02:43:49;580.63;;;199.07;;
22103;SDS011;11218;48.886;9.426;2022-09-25T02:46:26;565.05;;;199.15;;
22103;SDS011;11218;48.886;9.426;2022-09-25T02:49:01;491.45;;;180.77;;
22103;SDS011;11218;48.886;9.426;2022-09-25T02:51:34;407.50;;;165.57;;
22103;SDS011;11218;48.886;9.426;2022-09-25T02:54:07;452.50;;;175.60;;
22103;SDS011;11218;48.886;9.426;2022-09-25T02:56:39;459.67;;;178.40;;
22103;SDS011;11218;48.886;9.426;2022-09-25T02:59:10;459.52;;;173.18;;
22103;SDS011;11218;48.886;9.426;2022-09-25T03:01:43;444.15;;;169.52;;
22103;SDS011;11218;48.886;9.426;2022-09-25T03:04:12;466.30;;;177.95;;
22103;SDS011;11218;48.886;9.426;2022-09-25T03:06:41;487.17;;;182.90;;
22103;SDS011;11218;48.886;9.426;2022-09-25T03:09:10;509.10;;;185.40;;
22103;SDS011;11218;48.886;9.426;2022-09-25T03:11:40;562.42;;;201.93;;
22103;SDS011;11218;48.886;9.426;2022-09-25T03:14:09;572.00;;;199.52;;
22103;SDS011;11218;48.886;9.426;2022-09-25T03:16:37;561.60;;;200.07;;
22103;SDS011;11218;48.886;9.426;2022-09-25T03:19:10;550.40;;;200.65;;
22103;SDS011;11218;48.886;9.426;2022-09-25T03:21:38;533.97;;;197.20;;
22103;SDS011;11218;48.886;9.426;2022-09-25T03:24:06;573.40;;;200.95;;
22103;SDS011;11218;48.886;9.426;2022-09-25T03:26:36;597.38;;;207.80;;
22103;SDS011;11218;48.886;9.426;2022-09-25T03:29:04;602.35;;;206.68;;
22103;SDS011;11218;48.886;9.426;2022-09-25T03:31:31;599.75;;;210.68;;
22103;SDS011;11218;48.886;9.426;2022-09-25T03:34:00;607.95;;;207.23;;
22103;SDS011;11218;48.886;9.426;2022-09-25T03:36:29;611.53;;;206.93;;
22103;SDS011;11218;48.886;9.426;2022-09-25T03:38:59;587.85;;;204.82;;
22103;SDS011;11218;48.886;9.426;2022-09-25T03:41:28;576.67;;;202.75;;
22103;SDS011;11218;48.886;9.426;2022-09-25T03:43:56;561.75;;;200.55;;
22103;SDS011;11218;48.886;9.426;2022-09-25T03:46:26;580.22;;;202.13;;
22103;SDS011;11218;48.886;9.426;2022-09-25T03:48:54;584.35;;;203.63;;
22103;SDS011;11218;48.886;9.426;2022-09-25T03:51:23;585.30;;;204.55;;
22103;SDS011;11218;48.886;9.426;2022-09-25T03:53:54;530.47;;;203.15;;
22103;SDS011;11218;48.886;9.426;2022-09-25T03:56:23;505.40;;;185.00;;
22103;SDS011;11218;48.886;9.426;2022-09-25T03:58:53;525.00;;;193.35;;
22103;SDS011;11218;48.886;9.426;2022-09-25T04:01:21;513.55;;;187.13;;
22103;SDS011;11218;48.886;9.426;2022-09-25T04:03:50;562.25;;;205.23;;
22103;SDS011;11218;48.886;9.426;2022-09-25T04:06:19;560.33;;;200.00;;
22103;SDS011;11218;48.886;9.426;2022-09-25T04:08:49;573.50;;;199.60;;
22103;SDS011;11218;48.886;9.426;2022-09-25T04:11:20;610.47;;;211.20;;
22103;SDS011;11218;48.886;9.426;2022-09-25T04:13:49;617.63;;;213.93;;
22103;SDS011;11218;48.886;9.426;2022-09-25T04:16:18;606.72;;;209.15;;
22103;SDS011;11218;48.886;9.426;2022-09-25T04:18:47;612.45;;;208.77;;
22103;SDS011;11218;48.886;9.426;2022-09-25T04:21:15;613.15;;;208.57;;
22103;SDS011;11218;48.886;9.426;2022-09-25T04:23:43;621.33;;;212.00;;
22103;SDS011;11218;48.886;9.426;2022-09-25T04:26:34;611.72;;;204.63;;
22103;SDS011;11218;48.886;9.426;2022-09-25T04:29:02;612.83;;;209.48;;
22103;SDS011;11218;48.886;9.426;2022-09-25T04:31:31;613.22;;;204.90;;
22103;SDS011;11218;48.886;9.426;2022-09-25T04:33:59;623.05;;;213.15;;
22103;SDS011;11218;48.886;9.426;2022-09-25T04:36:26;629.95;;;219.35;;
22103;SDS011;11218;48.886;9.426;2022-09-25T04:38:54;628.28;;;214.88;;
22103;SDS011;11218;48.886;9.426;2022-09-25T04:41:22;624.90;;;214.55;;
22103;SDS011;11218;48.886;9.426;2022-09-25T04:43:51;629.53;;;215.48;;
22103;SDS011;11218;48.886;9.426;2022-09-25T04:46:19;623.40;;;210.70;;
22103;SDS011;11218;48.886;9.426;2022-09-25T04:48:48;625.55;;;215.48;;
22103;SDS011;11218;48.886;9.426;2022-09-25T04:51:16;619.20;;;209.57;;
22103;SDS011;11218;48.886;9.426;2022-09-25T04:53:44;628.50;;;219.13;;
22103;SDS011;11218;48.886;9.426;2022-09-25T04:56:12;613.85;;;210.60;;
22103;SDS011;11218;48.886;9.426;2022-09-25T04:58:42;608.00;;;212.65;;
22103;SDS011;11218;48.886;9.426;2022-09-25T05:01:12;620.40;;;214.75;;
22103;SDS011;11218;48.886;9.426;2022-09-25T05:03:41;620.08;;;215.07;;
22103;SDS011;11218;48.886;9.426;2022-09-25T05:06:09;600.25;;;216.02;;
22103;SDS011;11218;48.886;9.426;2022-09-25T05:08:37;592.25;;;212.60;;
22103;SDS011;11218;48.886;9.426;2022-09-25T05:11:05;573.00;;;203.30;;
22103;SDS011;11218;48.886;9.426;2022-09-25T05:13:33;593.78;;;207.73;;
22103;SDS011;11218;48.886;9.426;2022-09-25T05:16:01;566.05;;;201.98;;
22103;SDS011;11218;48.886;9.426;2022-09-25T05:18:31;602.58;;;208.63;;
22103;SDS011;11218;48.886;9.426;2022-09-25T05:21:01;603.42;;;207.27;;
22103;SDS011;11218;48.886;9.426;2022-09-25T05:23:30;616.78;;;215.73;;
22103;SDS011;11218;48.886;9.426;2022-09-25T05:25:58;632.58;;;224.10;;
22103;SDS011;11218;48.886;9.426;2022-09-25T05:28:27;626.60;;;216.00;;
22103;SDS011;11218;48.886;9.426;2022-09-25T05:30:57;635.17;;;223.05;;
22103;SDS011;11218;48.886;9.426;2022-09-25T05:33:28;628.72;;;219.63;;
22103;SDS011;11218;48.886;9.426;2022-09-25T05:36:00;611.20;;;208.38;;
22103;SDS011;11218;48.886;9.426;2022-09-25T05:38:30;574.25;;;196.63;;
22103;SDS011;11218;48.886;9.426;2022-09-25T05:40:59;523.65;;;189.70;;
22103;SDS011;11218;48.886;9.426;2022-09-25T05:43:29;539.22;;;193.63;;
22103;SDS011;11218;48.886;9.426;2022-09-25T05:45:58;521.78;;;191.90;;
22103;SDS011;11218;48.886;9.426;2022-09-25T05:48:26;337.80;;;150.05;;
22103;SDS011;11218;48.886;9.426;2022-09-25T05:50:55;429.60;;;162.65;;
22103;SDS011;11218;48.886;9.426;2022-09-25T05:53:24;426.30;;;162.50;;
22103;SDS011;11218;48.886;9.426;2022-09-25T05:55:54;344.92;;;148.13;;
22103;SDS011;11218;48.886;9.426;2022-09-25T05:58:23;347.35;;;153.23;;
22103;SDS011;11218;48.886;9.426;2022-09-25T06:00:51;203.73;;;121.70;;
22103;SDS011;11218;48.886;9.426;2022-09-25T06:03:20;162.32;;;106.40;;
22103;SDS011;11218;48.886;9.426;2022-09-25T06:05:49;148.68;;;102.32;;
22103;SDS011;11218;48.886;9.426;2022-09-25T06:08:16;182.80;;;116.80;;
22103;SDS011;11218;48.886;9.426;2022-09-25T06:10:49;163.85;;;107.75;;
22103;SDS011;11218;48.886;9.426;2022-09-25T06:13:18;166.63;;;106.45;;
22103;SDS011;11218;48.886;9.426;2022-09-25T06:15:46;191.43;;;118.10;;
22103;SDS011;11218;48.886;9.426;2022-09-25T06:18:18;252.65;;;135.48;;
22103;SDS011;11218;48.886;9.426;2022-09-25T06:20:46;232.32;;;131.02;;
22103;SDS011;11218;48.886;9.426;2022-09-25T06:23:15;355.80;;;160.85;;
22103;SDS011;11218;48.886;9.426;2022-09-25T06:25:45;369.17;;;155.73;;
22103;SDS011;11218;48.886;9.426;2022-09-25T06:28:13;428.65;;;172.60;;
22103;SDS011;11218;48.886;9.426;2022-09-25T06:30:41;375.92;;;156.90;;
22103;SDS011;11218;48.886;9.426;2022-09-25T06:33:09;404.25;;;168.07;;
22103;SDS011;11218;48.886;9.426;2022-09-25T06:35:40;444.92;;;173.20;;
22103;SDS011;11218;48.886;9.426;2022-09-25T06:38:08;506.42;;;191.85;;
22103;SDS011;11218;48.886;9.426;2022-09-25T06:40:36;472.08;;;180.75;;
22103;SDS011;11218;48.886;9.426;2022-09-25T06:43:09;536.78;;;193.82;;
22103;SDS011;11218;48.886;9.426;2022-09-25T06:45:39;542.40;;;202.48;;
22103;SDS011;11218;48.886;9.426;2022-09-25T06:48:08;527.97;;;197.80;;
22103;SDS011;11218;48.886;9.426;2022-09-25T06:50:39;495.45;;;186.40;;
22103;SDS011;11218;48.886;9.426;2022-09-25T06:53:08;537.25;;;198.05;;
22103;SDS011;11218;48.886;9.426;2022-09-25T06:55:36;582.80;;;208.18;;
22103;SDS011;11218;48.886;9.426;2022-09-25T06:58:05;615.83;;;205.80;;
22103;SDS011;11218;48.886;9.426;2022-09-25T07:00:36;628.83;;;215.85;;
22103;SDS011;11218;48.886;9.426;2022-09-25T07:03:04;621.53;;;211.70;;
22103;SDS011;11218;48.886;9.426;2022-09-25T07:05:49;617.97;;;209.40;;
22103;SDS011;11218;48.886;9.426;2022-09-25T07:08:17;659.22;;;231.07;;
22103;SDS011;11218;48.886;9.426;2022-09-25T07:10:47;632.47;;;218.68;;
22103;SDS011;11218;48.886;9.426;2022-09-25T07:13:16;624.05;;;216.20;;
22103;SDS011;11218;48.886;9.426;2022-09-25T07:15:50;635.20;;;217.27;;
22103;SDS011;11218;48.886;9.426;2022-09-25T07:18:19;654.90;;;224.57;;
22103;SDS011;11218;48.886;9.426;2022-09-25T07:20:47;627.95;;;213.80;;
22103;SDS011;11218;48.886;9.426;2022-09-25T07:23:15;628.53;;;216.43;;
22103;SDS011;11218;48.886;9.426;2022-09-25T07:25:44;628.45;;;213.60;;
22103;SDS011;11218;48.886;9.426;2022-09-25T07:28:13;649.83;;;224.98;;
22103;SDS011;11218;48.886;9.426;2022-09-25T07:30:41;640.67;;;228.32;;
22103;SDS011;11218;48.886;9.426;2022-09-25T07:33:11;643.00;;;226.00;;
22103;SDS011;11218;48.886;9.426;2022-09-25T07:35:39;627.50;;;216.20;;
22103;SDS011;11218;48.886;9.426;2022-09-25T07:38:07;632.92;;;221.25;;
22103;SDS011;11218;48.886;9.426;2022-09-25T07:40:35;627.95;;;217.35;;
22103;SDS011;11218;48.886;9.426;2022-09-25T07:43:04;640.10;;;222.93;;
22103;SDS011;11218;48.886;9.426;2022-09-25T07:45:32;625.42;;;213.27;;
22103;SDS011;11218;48.886;9.426;2022-09-25T07:48:00;627.13;;;216.82;;
22103;SDS011;11218;48.886;9.426;2022-09-25T07:50:31;624.38;;;217.25;;
22103;SDS011;11218;48.886;9.426;2022-09-25T07:52:59;630.90;;;217.45;;
22103;SDS011;11218;48.886;9.426;2022-09-25T07:55:27;621.90;;;211.63;;
22103;SDS011;11218;48.886;9.426;2022-09-25T07:57:55;614.53;;;216.13;;
22103;SDS011;11218;48.886;9.426;2022-09-25T08:00:24;611.17;;;211.27;;
22103;SDS011;11218;48.886;9.426;2022-09-25T08:02:54;617.05;;;218.40;;
22103;SDS011;11218;48.886;9.426;2022-09-25T08:05:23;601.28;;;206.68;;
22103;SDS011;11218;48.886;9.426;2022-09-25T08:07:53;564.97;;;206.80;;
22103;SDS011;11218;48.886;9.426;2022-09-25T08:10:21;619.65;;;213.15;;
22103;SDS011;11218;48.886;9.426;2022-09-25T08:12:49;580.75;;;197.75;;
22103;SDS011;11218;48.886;9.426;2022-09-25T08:15:17;596.53;;;204.45;;
22103;SDS011;11218;48.886;9.426;2022-09-25T08:17:45;624.25;;;214.95;;
22103;SDS011;11218;48.886;9.426;2022-09-25T08:20:13;595.75;;;208.05;;
22103;SDS011;11218;48.886;9.426;2022-09-25T08:22:41;607.28;;;211.15;;
22103;SDS011;11218;48.886;9.426;2022-09-25T08:25:11;597.28;;;209.80;;
22103;SDS011;11218;48.886;9.426;2022-09-25T08:27:39;625.20;;;214.23;;
22103;SDS011;11218;48.886;9.426;2022-09-25T08:30:09;629.33;;;216.82;;
22103;SDS011;11218;48.886;9.426;2022-09-25T08:32:39;630.80;;;219.18;;
22103;SDS011;11218;48.886;9.426;2022-09-25T08:35:07;623.22;;;211.93;;
22103;SDS011;11218;48.886;9.426;2022-09-25T08:37:38;626.80;;;216.23;;
22103;SDS011;11218;48.886;9.426;2022-09-25T08:42:53;630.53;;;214.52;;
22103;SDS011;11218;48.886;9.426;2022-09-25T08:45:23;620.05;;;208.15;;
22103;SDS011;11218;48.886;9.426;2022-09-25T08:48:14;621.95;;;211.52;;
22103;SDS011;11218;48.886;9.426;2022-09-25T08:51:03;629.00;;;210.70;;
22103;SDS011;11218;48.886;9.426;2022-09-25T08:53:32;628.95;;;211.88;;
22103;SDS011;11218;48.886;9.426;2022-09-25T08:56:03;613.70;;;204.95;;
22103;SDS011;11218;48.886;9.426;2022-09-25T08:58:41;627.22;;;217.32;;
22103;SDS011;11218;48.886;9.426;2022-09-25T09:01:12;617.38;;;206.30;;
22103;SDS011;11218;48.886;9.426;2022-09-25T09:03:43;627.90;;;217.93;;
22103;SDS011;11218;48.886;9.426;2022-09-25T09:06:14;620.63;;;212.57;;
22103;SDS011;11218;48.886;9.426;2022-09-25T09:08:43;621.90;;;217.07;;
22103;SDS011;11218;48.886;9.426;2022-09-25T09:11:16;618.53;;;208.40;;
22103;SDS011;11218;48.886;9.426;2022-09-25T09:13:48;634.13;;;222.98;;
22103;SDS011;11218;48.886;9.426;2022-09-25T09:16:20;630.38;;;216.45;;
22103;SDS011;11218;48.886;9.426;2022-09-25T09:18:50;627.25;;;220.93;;
22103;SDS011;11218;48.886;9.426;2022-09-25T09:21:19;624.35;;;213.98;;
22103;SDS011;11218;48.886;9.426;2022-09-25T09:23:53;634.03;;;221.98;;
22103;SDS011;11218;48.886;9.426;2022-09-25T09:26:30;628.47;;;215.77;;
22103;SDS011;11218;48.886;9.426;2022-09-25T09:29:12;626.78;;;215.50;;
22103;SDS011;11218;48.886;9.426;2022-09-25T09:31:47;632.03;;;222.35;;
22103;SDS011;11218;48.886;9.426;2022-09-25T09:34:31;628.05;;;217.63;;
22103;SDS011;11218;48.886;9.426;2022-09-25T09:37:27;628.92;;;219.80;;
22103;SDS011;11218;48.886;9.426;2022-09-25T09:40:06;625.20;;;211.90;;
22103;SDS011;11218;48.886;9.426;2022-09-25T09:42:46;652.08;;;230.07;;
22103;SDS011;11218;48.886;9.426;2022-09-25T09:45:18;643.53;;;228.60;;
22103;SDS011;11218;48.886;9.426;2022-09-25T09:47:50;641.38;;;229.13;;
22103;SDS011;11218;48.886;9.426;2022-09-25T09:50:24;631.78;;;224.82;;
22103;SDS011;11218;48.886;9.426;2022-09-25T09:52:58;638.38;;;229.20;;
22103;SDS011;11218;48.886;9.426;2022-09-25T09:55:32;640.00;;;229.32;;
22103;SDS011;11218;48.886;9.426;2022-09-25T09:58:08;631.80;;;221.05;;
22103;SDS011;11218;48.886;9.426;2022-09-25T10:00:39;634.35;;;221.55;;
22103;SDS011;11218;48.886;9.426;2022-09-25T10:03:10;642.80;;;233.23;;
22103;SDS011;11218;48.886;9.426;2022-09-25T10:05:40;637.03;;;227.10;;
22103;SDS011;11218;48.886;9.426;2022-09-25T10:08:09;642.97;;;230.30;;
22103;SDS011;11218;48.886;9.426;2022-09-25T10:10:38;641.47;;;222.35;;
22103;SDS011;11218;48.886;9.426;2022-09-25T10:13:12;641.38;;;229.00;;
22103;SDS011;11218;48.886;9.426;2022-09-25T10:15:43;631.03;;;217.43;;
22103;SDS011;11218;48.886;9.426;2022-09-25T10:18:14;635.10;;;220.07;;
22103;SDS011;11218;48.886;9.426;2022-09-25T10:20:43;637.30;;;220.30;;
22103;SDS011;11218;48.886;9.426;2022-09-25T10:23:16;636.75;;;221.70;;
22103;SDS011;11218;48.886;9.426;2022-09-25T10:25:56;631.90;;;222.00;;
22103;SDS011;11218;48.886;9.426;2022-09-25T10:28:27;696.22;;;256.27;;
22103;SDS011;11218;48.886;9.426;2022-09-25T10:30:57;635.03;;;223.88;;
22103;SDS011;11218;48.886;9.426;2022-09-25T10:33:28;639.42;;;221.68;;
22103;SDS011;11218;48.886;9.426;2022-09-25T10:35:57;631.60;;;225.68;;
22103;SDS011;11218;48.886;9.426;2022-09-25T10:38:30;672.55;;;241.68;;
22103;SDS011;11218;48.886;9.426;2022-09-25T10:41:01;629.08;;;219.20;;
22103;SDS011;11218;48.886;9.426;2022-09-25T10:43:33;634.60;;;222.00;;
22103;SDS011;11218;48.886;9.426;2022-09-25T10:46:09;636.25;;;224.30;;
22103;SDS011;11218;48.886;9.426;2022-09-25T10:48:39;633.65;;;222.40;;
22103;SDS011;11218;48.886;9.426;2022-09-25T10:51:25;638.95;;;220.13;;
22103;SDS011;11218;48.886;9.426;2022-09-25T10:54:09;641.75;;;222.85;;
22103;SDS011;11218;48.886;9.426;2022-09-25T10:56:38;637.58;;;222.77;;
22103;SDS011;11218;48.886;9.426;2022-09-25T10:59:12;630.78;;;217.45;;
22103;SDS011;11218;48.886;9.426;2022-09-25T11:01:44;631.03;;;218.82;;
22103;SDS011;11218;48.886;9.426;2022-09-25T11:04:13;632.03;;;223.13;;
22103;SDS011;11218;48.886;9.426;2022-09-25T11:06:44;630.85;;;221.15;;
22103;SDS011;11218;48.886;9.426;2022-09-25T11:09:14;633.97;;;220.80;;
22103;SDS011;11218;48.886;9.426;2022-09-25T11:11:44;632.95;;;222.65;;
22103;SDS011;11218;48.886;9.426;2022-09-25T11:14:20;635.95;;;225.23;;
22103;SDS011;11218;48.886;9.426;2022-09-25T11:16:54;637.42;;;228.23;;
22103;SDS011;11218;48.886;9.426;2022-09-25T11:19:24;630.13;;;221.05;;
22103;SDS011;11218;48.886;9.426;2022-09-25T11:22:06;633.97;;;222.60;;
22103;SDS011;11218;48.886;9.426;2022-09-25T11:24:47;632.90;;;226.70;;
22103;SDS011;11218;48.886;9.426;2022-09-25T11:27:29;641.15;;;226.57;;
22103;SDS011;11218;48.886;9.426;2022-09-25T11:30:03;629.17;;;219.75;;
22103;SDS011;11218;48.886;9.426;2022-09-25T11:32:33;634.22;;;229.68;;
22103;SDS011;11218;48.886;9.426;2022-09-25T11:38:13;624.42;;;215.13;;
22103;SDS011;11218;48.886;9.426;2022-09-25T11:41:09;628.95;;;220.80;;
22103;SDS011;11218;48.886;9.426;2022-09-25T11:43:48;636.53;;;225.98;;
22103;SDS011;11218;48.886;9.426;2022-09-25T11:46:26;635.22;;;225.70;;
22103;SDS011;11218;48.886;9.426;2022-09-25T11:49:02;636.65;;;227.75;;
22103;SDS011;11218;48.886;9.426;2022-09-25T11:51:43;637.67;;;225.20;;
22103;SDS011;11218;48.886;9.426;2022-09-25T11:54:34;631.17;;;226.02;;
22103;SDS011;11218;48.886;9.426;2022-09-25T11:57:09;635.15;;;224.88;;
22103;SDS011;11218;48.886;9.426;2022-09-25T11:59:41;631.85;;;227.38;;
22103;SDS011;11218;48.886;9.426;2022-09-25T12:02:20;633.42;;;225.35;;
22103;SDS011;11218;48.886;9.426;2022-09-25T12:05:00;634.70;;;228.32;;
22103;SDS011;11218;48.886;9.426;2022-09-25T12:07:42;632.55;;;221.82;;
22103;SDS011;11218;48.886;9.426;2022-09-25T12:10:25;625.38;;;224.30;;
22103;SDS011;11218;48.886;9.426;2022-09-25T12:13:01;638.53;;;230.02;;
22103;SDS011;11218;48.886;9.426;2022-09-25T12:15:41;636.42;;;226.85;;
22103;SDS011;11218;48.886;9.426;2022-09-25T12:18:18;637.40;;;227.35;;
22103;SDS011;11218;48.886;9.426;2022-09-25T12:20:49;639.80;;;229.93;;
22103;SDS011;11218;48.886;9.426;2022-09-25T12:23:23;633.28;;;226.68;;
22103;SDS011;11218;48.886;9.426;2022-09-25T12:25:57;637.95;;;226.85;;
22103;SDS011;11218;48.886;9.426;2022-09-25T12:28:36;676.97;;;251.20;;
22103;SDS011;11218;48.886;9.426;2022-09-25T12:31:12;638.33;;;234.98;;
22103;SDS011;11218;48.886;9.426;2022-09-25T12:33:47;643.72;;;236.32;;
22103;SDS011;11218;48.886;9.426;2022-09-25T12:36:19;633.53;;;239.35;;
22103;SDS011;11218;48.886;9.426;2022-09-25T12:38:50;642.85;;;238.68;;
22103;SDS011;11218;48.886;9.426;2022-09-25T12:41:22;643.75;;;240.57;;
22103;SDS011;11218;48.886;9.426;2022-09-25T12:43:55;634.83;;;233.63;;
22103;SDS011;11218;48.886;9.426;2022-09-25T12:46:27;641.38;;;239.68;;
22103;SDS011;11218;48.886;9.426;2022-09-25T12:49:01;636.75;;;231.55;;
22103;SDS011;11218;48.886;9.426;2022-09-25T12:51:33;643.60;;;237.82;;
22103;SDS011;11218;48.886;9.426;2022-09-25T12:54:05;642.72;;;239.02;;
22103;SDS011;11218;48.886;9.426;2022-09-25T12:56:41;639.63;;;235.70;;
22103;SDS011;11218;48.886;9.426;2022-09-25T12:59:12;638.95;;;236.15;;
22103;SDS011;11218;48.886;9.426;2022-09-25T13:01:44;639.78;;;240.93;;
22103;SDS011;11218;48.886;9.426;2022-09-25T13:07:21;647.15;;;243.20;;
22103;SDS011;11218;48.886;9.426;2022-09-25T13:09:53;641.53;;;240.73;;
22103;SDS011;11218;48.886;9.426;2022-09-25T13:12:27;630.45;;;235.10;;
22103;SDS011;11218;48.886;9.426;2022-09-25T13:15:00;638.05;;;258.73;;
22103;SDS011;11218;48.886;9.426;2022-09-25T13:17:32;651.47;;;257.95;;
22103;SDS011;11218;48.886;9.426;2022-09-25T13:23:10;647.58;;;250.60;;
22103;SDS011;11218;48.886;9.426;2022-09-25T13:25:41;634.20;;;243.23;;
22103;SDS011;11218;48.886;9.426;2022-09-25T13:28:12;650.30;;;255.07;;
22103;SDS011;11218;48.886;9.426;2022-09-25T13:31:05;637.25;;;243.50;;
22103;SDS011;11218;48.886;9.426;2022-09-25T13:33:37;638.50;;;248.27;;
22103;SDS011;11218;48.886;9.426;2022-09-25T13:36:15;630.88;;;244.10;;
22103;SDS011;11218;48.886;9.426;2022-09-25T13:38:57;625.65;;;235.18;;
22103;SDS011;11218;48.886;9.426;2022-09-25T13:41:47;621.83;;;236.40;;
22103;SDS011;11218;48.886;9.426;2022-09-25T13:50:31;626.17;;;230.50;;
22103;SDS011;11218;48.886;9.426;2022-09-25T13:53:20;631.30;;;233.40;;
22103;SDS011;11218;48.886;9.426;2022-09-25T14:05:04;631.17;;;240.35;;
22103;SDS011;11218;48.886;9.426;2022-09-25T14:07:32;637.38;;;241.10;;
22103;SDS011;11218;48.886;9.426;2022-09-25T14:10:00;618.95;;;237.20;;
22103;SDS011;11218;48.886;9.426;2022-09-25T14:12:37;621.90;;;237.95;;
22103;SDS011;11218;48.886;9.426;2022-09-25T14:15:08;628.38;;;239.05;;
22103;SDS011;11218;48.886;9.426;2022-09-25T14:17:44;647.05;;;243.50;;
22103;SDS011;11218;48.886;9.426;2022-09-25T14:20:25;627.47;;;242.77;;
22103;SDS011;11218;48.886;9.426;2022-09-25T14:22:57;631.22;;;239.48;;
22103;SDS011;11218;48.886;9.426;2022-09-25T14:25:27;633.58;;;238.82;;
22103;SDS011;11218;48.886;9.426;2022-09-25T14:28:00;638.70;;;234.57;;
22103;SDS011;11218;48.886;9.426;2022-09-25T14:30:28;634.15;;;231.70;;
22103;SDS011;11218;48.886;9.426;2022-09-25T14:33:02;636.33;;;236.18;;
22103;SDS011;11218;48.886;9.426;2022-09-25T14:35:37;637.80;;;242.82;;
22103;SDS011;11218;48.886;9.426;2022-09-25T14:41:17;636.95;;;241.10;;
22103;SDS011;11218;48.886;9.426;2022-09-25T14:44:17;638.63;;;229.63;;
22103;SDS011;11218;48.886;9.426;2022-09-25T14:47:02;631.08;;;231.07;;
22103;SDS011;11218;48.886;9.426;2022-09-25T14:49:31;632.00;;;232.05;;
22103;SDS011;11218;48.886;9.426;2022-09-25T14:52:03;627.47;;;229.40;;
22103;SDS011;11218;48.886;9.426;2022-09-25T14:54:36;622.47;;;227.80;;